Terminal Aerodrome Forecast
Issued by NWS

Current Version | Previous Version | Text Only | Print | Product List | Glossary On
Versions: 1 2 3 4 5 6 7 8 9 10 11 12 13 14 15
113
FTUS44 KSJT 021127 CCA
TAFJCT
TAF COR
KJCT 021127Z 0212/0312 01011G18KT P6SM VCSH BKN020 OVC035
      TEMPO 0212/0214 SCT020
     FM021800 02010KT P6SM BKN050
     FM030200 VRB03KT P6SM SCT120=

USA.gov is the U.S. government's official web portal to all federal, state and local government web resources and services.